Terminal Aerodrome Forecast
Issued by NWS Grand Junction, CO

Home | Current Version | Previous Version | Text Only | Print | Product List | Glossary On
Versions: 1 2 3 4 5 6 7 8 9 10 11 12 13 14 15 16 17 18 19
000
FTUS45 KGJT 192345
TAFGJT
TAF
KGJT 192345Z 2000/2024 27022G28KT P6SM FEW130 SCT200
     FM200300 30010KT P6SM FEW110 SCT200
     FM200700 04005KT P6SM FEW110 FEW200
     FM201500 13006KT P6SM SKC
     FM202000 23013G21KT P6SM FEW130 FEW200=

USA.gov is the U.S. government's official web portal to all federal, state and local government web resources and services.